Time;durP1;ratioP1;P1;durP2;ratioP2;P2;SDS_P1;SDS_P2;PMS_P1;PMS_P2;Temp;Humidity;BMP_temperature;BMP_pressure;BME280_temperature;BME280_humidity;BME280_pressure;Samples;Min_cycle;Max_cycle;Signal;HPM_P1;HPM_P2
2020/12/28 00:01:46;;;;;;;17.98;12.78;;;;;;;-2.81;88.95;101068.20;1756317;81;20951;-76
2020/12/28 00:04:14;;;;;;;20.40;14.35;;;;;;;-2.82;88.99;101074.13;1756391;81;20970;-69
2020/12/28 00:06:47;;;;;;;19.60;13.85;;;;;;;-2.83;88.97;101074.97;1756319;81;21002;-69
2020/12/28 00:09:16;;;;;;;21.12;15.32;;;;;;;-2.85;88.92;101075.36;1756193;81;20973;-69
2020/12/28 00:11:46;;;;;;;20.85;14.05;;;;;;;-2.85;88.99;101070.26;1756285;81;21480;-69
2020/12/28 00:14:15;;;;;;;20.15;13.72;;;;;;;-2.87;89.03;101079.16;1756374;81;20954;-69
2020/12/28 00:16:44;;;;;;;19.98;13.95;;;;;;;-2.87;89.04;101066.83;1756262;81;20994;-69
2020/12/28 00:19:13;;;;;;;19.62;13.05;;;;;;;-2.86;89.11;101066.00;1756318;81;20955;-69
2020/12/28 00:21:42;;;;;;;20.70;15.00;;;;;;;-2.88;89.21;101060.02;1756273;81;21642;-69
2020/12/28 00:24:10;;;;;;;19.27;14.00;;;;;;;-2.89;89.22;101057.89;1756211;81;21037;-69
2020/12/28 00:26:39;;;;;;;19.75;14.45;;;;;;;-2.91;89.28;101051.91;1756302;81;20919;-69
2020/12/28 00:29:09;;;;;;;19.05;14.05;;;;;;;-2.91;89.27;101054.88;1756356;81;20907;-69
2020/12/28 00:31:37;;;;;;;19.73;13.60;;;;;;;-2.92;89.30;101048.92;1756293;81;20947;-77
2020/12/28 00:34:05;;;;;;;18.55;13.98;;;;;;;-2.92;89.42;101042.55;1756430;81;22074;-77
2020/12/28 00:36:33;;;;;;;19.50;14.15;;;;;;;-2.93;89.37;101052.30;1756284;81;21612;-76
2020/12/28 00:39:01;;;;;;;19.05;13.40;;;;;;;-2.91;89.40;101056.15;1756293;81;21049;-75
2020/12/28 00:41:30;;;;;;;21.42;14.68;;;;;;;-2.90;89.34;101054.04;1756336;81;21025;-77
2020/12/28 00:43:58;;;;;;;18.45;13.05;;;;;;;-2.91;89.29;101053.18;1756375;81;21524;-77
2020/12/28 00:46:28;;;;;;;18.45;13.05;;;;;;;-2.90;89.18;101056.17;1756311;81;21204;-77
2020/12/28 00:48:56;;;;;;;23.65;14.15;;;;;;;-2.92;89.01;101051.47;1756255;81;20962;-76
2020/12/28 00:51:24;;;;;;;16.73;12.95;;;;;;;-2.96;88.91;101050.98;1756297;81;20986;-77
2020/12/28 00:53:54;;;;;;;17.12;13.25;;;;;;;-2.99;88.88;101035.64;1756282;81;20955;-77
2020/12/28 00:56:23;;;;;;;17.12;12.50;;;;;;;-3.03;88.91;101026.23;1756311;81;21006;-76
2020/12/28 00:58:51;;;;;;;24.57;16.57;;;;;;;-3.06;88.90;101019.82;1756396;81;21559;-77
2020/12/28 01:01:20;;;;;;;25.82;17.12;;;;;;;-3.10;88.94;101019.33;1756302;81;21480;-69
2020/12/28 01:03:49;;;;;;;24.32;17.07;;;;;;;-3.13;88.94;101023.97;1756361;81;21605;-77
2020/12/28 01:06:22;;;;;;;22.55;16.55;;;;;;;-3.16;88.94;101023.06;1754984;81;21464;-76
2020/12/28 01:08:54;;;;;;;22.73;16.12;;;;;;;-3.18;89.02;101017.08;1755963;81;20974;-76
2020/12/28 01:11:23;;;;;;;19.90;13.70;;;;;;;-3.20;89.17;101017.51;1757737;81;21643;-76
2020/12/28 01:13:53;;;;;;;20.25;13.70;;;;;;;-3.22;89.22;101010.26;1757758;81;21033;-76
2020/12/28 01:16:22;;;;;;;24.70;15.58;;;;;;;-3.25;89.22;101010.21;1758134;81;20998;-76
2020/12/28 01:18:50;;;;;;;24.30;14.80;;;;;;;-3.27;89.24;101007.64;1758112;81;21000;-74
2020/12/28 01:21:23;;;;;;;23.00;15.05;;;;;;;-3.28;89.33;101007.61;1757715;81;21012;-74
2020/12/28 01:23:51;;;;;;;25.40;15.10;;;;;;;-3.28;89.36;101005.06;1758116;81;21197;-74
2020/12/28 01:26:21;;;;;;;23.32;15.68;;;;;;;-3.28;89.43;101003.80;1758172;81;21568;-76
2020/12/28 01:28:51;;;;;;;20.57;14.90;;;;;;;-3.26;89.45;101006.80;1758017;81;21047;-75
2020/12/28 01:31:19;;;;;;;23.05;15.98;;;;;;;-3.24;89.47;100999.19;1758118;81;21068;-76
2020/12/28 01:34:05;;;;;;;19.90;13.98;;;;;;;-3.22;89.55;100989.88;1758362;81;20972;-76
2020/12/28 01:36:38;;;;;;;16.60;12.63;;;;;;;-3.18;89.58;100987.79;1757241;81;21437;-76
2020/12/28 01:39:08;;;;;;;18.80;13.70;;;;;;;-3.14;89.51;100992.95;1757665;81;21573;-75
2020/12/28 01:41:37;;;;;;;22.07;14.98;;;;;;;-3.11;89.38;100984.50;1758187;81;20957;-75
2020/12/28 01:44:05;;;;;;;22.05;14.78;;;;;;;-3.09;89.25;100981.56;1743273;81;21000;-75
2020/12/28 01:46:35;;;;;;;21.27;14.95;;;;;;;-3.09;89.14;100975.19;1758214;81;21518;-74
2020/12/28 01:49:04;;;;;;;21.33;15.13;;;;;;;-3.10;89.12;100972.20;1758115;81;21241;-75
2020/12/28 01:51:32;;;;;;;23.25;15.63;;;;;;;-3.11;89.02;100977.72;1758187;81;20973;-76
2020/12/28 01:54:01;;;;;;;21.60;16.27;;;;;;;-3.10;88.91;100976.03;1758162;81;20957;-74
2020/12/28 01:56:34;;;;;;;24.77;17.07;;;;;;;-3.14;88.87;100966.21;1757706;81;21008;-75
2020/12/28 01:59:02;;;;;;;22.05;16.25;;;;;;;-3.14;88.84;100966.63;1758364;81;20953;-75
2020/12/28 02:01:35;;;;;;;25.95;17.90;;;;;;;-3.17;88.85;100962.76;1758303;81;21138;-75
2020/12/28 02:04:03;;;;;;;21.23;15.25;;;;;;;-3.18;88.78;100948.31;1758348;81;21558;-75
2020/12/28 02:06:33;;;;;;;24.30;17.17;;;;;;;-3.18;88.81;100950.86;1757912;81;21018;-75
2020/12/28 02:09:02;;;;;;;27.15;17.00;;;;;;;-3.20;88.69;100943.20;1758281;81;21000;-74
2020/12/28 02:11:32;;;;;;;22.70;15.93;;;;;;;-3.21;88.74;100937.69;1744985;81;21002;-76
2020/12/28 02:14:00;;;;;;;22.93;16.30;;;;;;;-3.20;88.82;100934.73;1758692;81;22129;-75
2020/12/28 02:16:31;;;;;;;26.75;16.57;;;;;;;-3.21;88.72;100949.16;1757003;81;20974;-75
2020/12/28 02:19:04;;;;;;;27.73;18.77;;;;;;;-3.22;88.59;100941.48;1758015;81;20958;-75
2020/12/28 02:21:37;;;;;;;24.60;17.17;;;;;;;-3.25;88.57;100949.94;1758500;81;20954;-74
2020/12/28 02:24:06;;;;;;;21.87;15.15;;;;;;;-3.26;88.59;100940.59;1758543;81;20915;-75
2020/12/28 02:26:36;;;;;;;27.45;19.17;;;;;;;-3.26;88.51;100955.02;1758472;81;23127;-75
2020/12/28 02:29:04;;;;;;;25.65;17.50;;;;;;;-3.28;88.47;100955.41;1758594;81;20926;-75
2020/12/28 02:31:33;;;;;;;27.50;17.87;;;;;;;-3.30;88.67;100951.98;1758641;81;21014;-71
2020/12/28 02:34:06;;;;;;;27.77;18.32;;;;;;;-3.29;88.69;100932.91;1740355;81;20959;-74
2020/12/28 02:36:36;;;;;;;24.12;18.02;;;;;;;-3.27;88.71;100935.47;1758333;81;21333;-75
2020/12/28 02:39:04;;;;;;;31.50;19.92;;;;;;;-3.25;88.54;100932.53;1758523;81;21192;-74
2020/12/28 02:41:34;;;;;;;28.67;20.30;;;;;;;-3.24;88.41;100933.83;1758494;81;20962;-75
2020/12/28 02:44:20;;;;;;;22.52;16.82;;;;;;;-3.22;88.36;100931.30;1758680;81;21018;-73
2020/12/28 02:47:07;;;;;;;22.02;15.70;;;;;;;-3.21;88.24;100945.34;1758510;81;22382;-71
2020/12/28 02:49:53;;;;;;;;;;;;;;;-3.21;88.12;100949.16;1761156;81;21010;-73
2020/12/28 02:52:45;;;;;;;26.77;16.90;;;;;;;-3.21;88.09;100942.78;1758550;81;21191;-74
2020/12/28 02:55:31;;;;;;;25.90;18.15;;;;;;;-3.20;87.99;100935.55;1738152;81;21033;-72
2020/12/28 02:58:18;;;;;;;;;;;;;;;-3.18;87.89;100930.48;1761191;81;21296;-74
2020/12/28 03:01:06;;;;;;;26.07;17.75;;;;;;;-3.15;87.65;100935.62;1693280;84;20162;-74
2020/12/28 03:03:55;;;;;;;21.33;15.55;;;;;;;-3.10;87.44;100930.17;1890317;76;28059;-76
2020/12/28 03:06:41;;;;;;;;;;;;;;;-3.15;87.28;100924.16;1785838;80;20996;-76
2020/12/28 03:09:28;;;;;;;21.75;15.38;;;;;;;-3.15;87.18;100925.43;1815349;78;21365;-74
2020/12/28 03:12:15;;;;;;;26.62;16.40;;;;;;;-3.16;87.07;100931.36;1783136;80;20986;-76
2020/12/28 03:15:02;;;;;;;30.60;18.52;;;;;;;-3.17;87.03;100931.78;1815288;79;21001;-76
2020/12/28 03:17:48;;;;;;;;;;;;;;;-3.18;87.04;100932.61;1785797;80;21626;-74
2020/12/28 03:20:35;;;;;;;19.17;14.15;;;;;;;-3.18;87.19;100932.61;1783364;80;20119;-74
2020/12/28 03:23:22;;;;;;;25.20;18.10;;;;;;;-3.15;87.27;100930.52;1815497;79;22204;-76
2020/12/28 03:26:08;;;;;;;;;;;;;;;-3.13;87.23;100921.22;1785748;80;21046;-74
2020/12/28 03:28:55;;;;;;;23.90;16.55;;;;;;;-3.10;87.13;100914.47;1783268;80;20389;-74
2020/12/28 03:31:42;;;;;;;22.60;16.27;;;;;;;-3.06;87.08;100911.55;1815380;79;20997;-69
2020/12/28 03:34:28;;;;;;;20.88;15.58;;;;;;;-3.04;86.95;100909.46;1783256;80;21487;-70
2020/12/28 03:37:14;;;;;;;24.50;16.37;;;;;;;-2.99;86.84;100914.62;1815374;79;24582;-69
2020/12/28 03:39:59;;;;;;;24.18;15.43;;;;;;;-2.96;86.85;100903.19;1670272;86;21597;-69
2020/12/28 03:42:46;;;;;;;;;;;;;;;-2.94;86.70;100902.80;1773909;80;20926;-69
2020/12/28 03:45:32;;;;;;;24.65;17.42;;;;;;;-2.93;86.58;100901.11;1774329;80;20136;-69
2020/12/28 03:48:19;;;;;;;28.20;18.62;;;;;;;-2.92;86.60;100905.36;1783294;80;20985;-70
2020/12/28 03:51:05;;;;;;;24.82;16.62;;;;;;;-2.91;86.59;100904.11;1783286;80;21197;-70
2020/12/28 03:53:52;;;;;;;22.87;16.50;;;;;;;-2.88;86.22;100904.56;1815194;79;20953;-70
2020/12/28 03:56:39;;;;;;;;;;;;;;;-2.87;86.23;100902.45;1785888;80;21015;-70
2020/12/28 03:59:25;;;;;;;26.07;16.48;;;;;;;-2.83;86.21;100902.52;1783127;80;20135;-69
2020/12/28 04:02:13;;;;;;;24.00;15.18;;;;;;;-2.80;85.95;100898.70;1781210;80;21002;-74
2020/12/28 04:05:01;;;;;;;20.40;13.78;;;;;;;-2.76;85.43;100905.97;1804114;79;21632;-73
2020/12/28 04:07:47;;;;;;;;;;;;;;;-2.75;84.91;100900.89;1774987;81;21015;-73
2020/12/28 04:10:34;;;;;;;22.02;14.35;;;;;;;-2.75;84.46;100897.48;1772445;81;20135;-74
2020/12/28 04:13:06;;;;;;;19.70;13.83;;;;;;;-2.76;84.55;100903.00;1802548;79;20927;-73
2020/12/28 04:15:36;;;;;;;21.10;14.70;;;;;;;-2.75;84.40;100900.03;1771704;81;20959;-74
2020/12/28 04:18:05;;;;;;;20.10;13.72;;;;;;;-2.72;84.31;100899.65;1803516;79;21647;-72
2020/12/28 04:20:35;;;;;;;21.10;14.68;;;;;;;-2.71;84.08;100907.73;1771728;80;20987;-74
2020/12/28 04:23:03;;;;;;;21.07;15.20;;;;;;;-2.68;83.90;100908.19;1803541;79;21033;-74
2020/12/28 04:25:31;;;;;;;24.15;16.07;;;;;;;-2.67;83.82;100909.05;1771781;81;21001;-70
2020/12/28 04:27:59;;;;;;;19.62;13.90;;;;;;;-2.68;83.77;100903.09;1803509;79;20986;-73
2020/12/28 04:30:28;;;;;;;18.92;12.05;;;;;;;-2.68;83.63;100897.99;1771908;81;22065;-74
2020/12/28 04:32:56;;;;;;;19.30;14.00;;;;;;;-2.69;83.20;100907.75;1803486;79;21047;-73
2020/12/28 04:35:24;;;;;;;17.27;13.22;;;;;;;-2.70;83.23;100895.84;1771870;81;21465;-72
2020/12/28 04:37:52;;;;;;;19.10;13.93;;;;;;;-2.71;83.20;100900.50;1803481;79;20993;-72
2020/12/28 04:40:21;;;;;;;23.92;18.67;;;;;;;-2.72;83.17;100897.10;1771758;81;21050;-71
2020/12/28 04:42:49;;;;;;;21.00;15.25;;;;;;;-2.72;83.23;100903.89;1803533;79;22063;-75
2020/12/28 04:45:18;;;;;;;19.52;13.20;;;;;;;-2.73;83.26;100907.28;1771710;81;21951;-76
2020/12/28 04:47:46;;;;;;;21.52;14.43;;;;;;;-2.76;83.10;100913.19;1803397;79;20922;-75
2020/12/28 04:50:14;;;;;;;18.40;13.35;;;;;;;-2.76;83.01;100904.27;1771821;81;21454;-74
2020/12/28 04:52:43;;;;;;;20.72;13.70;;;;;;;-2.79;83.06;100920.80;1803586;79;20919;-75
2020/12/28 04:55:11;;;;;;;22.62;14.80;;;;;;;-2.83;83.06;100906.34;1771806;81;21451;-76
2020/12/28 04:57:39;;;;;;;23.45;15.00;;;;;;;-2.86;83.03;100902.48;1803542;79;21417;-74
2020/12/28 05:00:07;;;;;;;20.88;14.73;;;;;;;-2.87;82.95;100898.22;1771753;81;20908;-76
2020/12/28 05:02:36;;;;;;;21.25;13.88;;;;;;;-2.90;82.94;100905.82;1805423;79;20978;-71
2020/12/28 05:05:08;;;;;;;23.40;15.08;;;;;;;-2.92;82.83;100910.46;1750595;80;21493;-70
2020/12/28 05:07:37;;;;;;;22.13;14.85;;;;;;;-2.94;83.02;100910.44;1814611;79;20990;-70
2020/12/28 05:10:06;;;;;;;27.65;16.55;;;;;;;-2.93;83.03;100917.25;1782423;80;20963;-73
2020/12/28 05:12:34;;;;;;;26.12;14.70;;;;;;;-2.93;83.04;100910.88;1814535;79;20930;-70
2020/12/28 05:15:06;;;;;;;23.75;14.65;;;;;;;-2.93;82.95;100917.66;1782441;80;20955;-72
2020/12/28 05:17:34;;;;;;;22.45;14.87;;;;;;;-2.95;82.90;100921.47;1814631;79;20926;-76
2020/12/28 05:20:03;;;;;;;23.60;14.87;;;;;;;-2.97;83.07;100923.55;1782471;80;21289;-74
2020/12/28 05:22:34;;;;;;;22.52;14.70;;;;;;;-2.99;82.85;100911.22;1814635;79;21500;-76
2020/12/28 05:25:02;;;;;;;19.75;13.25;;;;;;;-2.99;82.93;100912.48;1782411;80;20990;-75
2020/12/28 05:27:31;;;;;;;19.12;13.30;;;;;;;-3.00;82.83;100913.33;1814520;79;20946;-76
2020/12/28 05:29:59;;;;;;;21.27;14.70;;;;;;;-3.02;82.96;100910.76;1782457;80;20991;-73
2020/12/28 05:32:27;;;;;;;23.95;15.05;;;;;;;-3.02;82.99;100918.40;1814633;79;21196;-74
2020/12/28 05:34:56;;;;;;;22.70;15.80;;;;;;;-3.02;82.84;100913.30;1782427;80;20986;-75
2020/12/28 05:37:24;;;;;;;23.52;15.35;;;;;;;-3.03;82.90;100912.86;1814581;79;20942;-76
2020/12/28 05:39:52;;;;;;;23.55;15.72;;;;;;;-3.02;83.03;100907.79;1782386;80;21341;-74
2020/12/28 05:42:22;;;;;;;19.10;13.95;;;;;;;-2.99;83.13;100903.57;1814719;79;21464;-72
2020/12/28 05:44:50;;;;;;;21.50;15.23;;;;;;;-2.97;83.00;100905.30;1782385;80;22070;-75
2020/12/28 05:47:19;;;;;;;27.93;20.72;;;;;;;-2.97;83.15;100903.17;1814501;79;21029;-75
2020/12/28 05:49:49;;;;;;;21.05;13.50;;;;;;;-2.98;83.18;100900.19;1782439;80;20943;-73
2020/12/28 05:52:19;;;;;;;19.67;14.03;;;;;;;-2.97;83.26;100908.27;1814515;79;20937;-74
2020/12/28 05:54:47;;;;;;;20.17;12.43;;;;;;;-2.99;83.23;100899.33;1782025;80;21069;-75
2020/12/28 05:57:16;;;;;;;33.75;18.40;;;;;;;-2.98;83.17;100906.14;1755496;79;21624;-74
2020/12/28 05:59:44;;;;;;;32.38;17.62;;;;;;;-2.96;83.10;100898.09;1782094;80;20958;-73
2020/12/28 06:02:12;;;;;;;21.02;13.85;;;;;;;-2.93;83.09;100902.38;1814252;79;20981;-73
2020/12/28 06:04:42;;;;;;;17.85;12.68;;;;;;;-2.87;82.55;100899.91;1755015;80;21339;-73
2020/12/28 06:07:14;;;;;;;16.82;12.73;;;;;;;-2.83;82.27;100888.92;1744942;79;21014;-72
2020/12/28 06:09:56;;;;;;;41.92;25.05;;;;;;;-2.79;81.69;100882.57;1734026;81;21191;-73
2020/12/28 06:12:24;;;;;;;45.50;26.33;;;;;;;-2.76;81.32;100884.30;1740886;81;21029;-70
2020/12/28 06:14:53;;;;;;;51.33;27.22;;;;;;;-2.73;81.34;100880.09;1758686;79;21074;-73
2020/12/28 06:17:32;;;;;;;45.98;23.85;;;;;;;-2.70;81.35;100862.29;1717413;81;21239;-71
2020/12/28 06:20:03;;;;;;;30.35;18.52;;;;;;;-2.64;81.17;100873.39;1744169;81;21616;-71
2020/12/28 06:22:32;;;;;;;23.87;16.52;;;;;;;-2.59;80.52;100865.38;1737975;81;21373;-73
2020/12/28 06:25:03;;;;;;;25.68;16.85;;;;;;;-2.54;80.02;100867.56;1736826;81;21049;-72
2020/12/28 06:27:45;;;;;;;14.73;12.78;;;;;;;-2.53;79.54;100859.07;1738168;79;20946;-73
2020/12/28 06:30:18;;;;;;;13.40;10.63;;;;;;;-2.54;79.23;100867.14;1748540;80;20981;-72
2020/12/28 06:32:53;;;;;;;13.13;10.30;;;;;;;-2.53;79.17;100869.27;1744090;80;21128;-74
2020/12/28 06:35:23;;;;;;;11.28;9.38;;;;;;;-2.52;79.01;100858.23;1786588;78;21566;-73
2020/12/28 06:37:53;;;;;;;14.35;9.95;;;;;;;-2.51;78.54;100862.49;1744863;79;20950;-74
2020/12/28 06:40:32;;;;;;;14.95;10.30;;;;;;;-2.52;78.67;100859.51;1743652;79;21116;-73
2020/12/28 06:43:16;;;;;;;13.25;10.00;;;;;;;-2.50;78.80;100851.45;1790331;79;21539;-71
2020/12/28 06:45:48;;;;;;;12.15;9.63;;;;;;;-2.49;78.65;100858.27;1785110;79;21077;-73
2020/12/28 06:48:23;;;;;;;17.00;11.10;;;;;;;-2.48;78.44;100872.73;1781843;78;22068;-72
2020/12/28 06:50:53;;;;;;;13.40;10.78;;;;;;;-2.47;78.65;100859.14;1733968;81;20977;-73
2020/12/28 06:53:26;;;;;;;18.05;11.68;;;;;;;-2.44;78.43;100863.00;1738613;81;21074;-70
2020/12/28 06:56:07;;;;;;;21.15;12.93;;;;;;;-2.41;78.48;100871.53;1750325;80;21089;-73
2020/12/28 06:58:36;;;;;;;25.17;12.03;;;;;;;-2.39;78.38;100868.55;1726495;83;21666;-71
2020/12/28 07:01:05;;;;;;;19.05;12.80;;;;;;;-2.37;78.30;100855.81;1739981;81;21320;-67
2020/12/28 07:03:34;;;;;;;38.83;20.10;;;;;;;-2.36;78.34;100858.80;1736624;81;21248;-72
2020/12/28 07:06:03;;;;;;;24.80;16.25;;;;;;;-2.33;77.97;100861.80;1810252;77;20969;-70
2020/12/28 07:08:39;;;;;;;36.08;23.05;;;;;;;-2.32;78.06;100849.06;1807571;77;20989;-67
2020/12/28 07:11:05;;;;;;;42.80;25.25;;;;;;;-2.29;78.26;100856.74;1806608;78;21127;-68
2020/12/28 07:13:34;;;;;;;47.48;27.95;;;;;;;-2.26;78.09;100848.27;1808701;78;22157;-68
2020/12/28 07:16:06;;;;;;;44.42;25.92;;;;;;;-2.22;78.00;100849.58;1813195;78;21284;-70
2020/12/28 07:18:35;;;;;;;56.90;30.85;;;;;;;-2.18;78.00;100854.30;1811984;77;20977;-69
2020/12/28 07:21:04;;;;;;;105.20;48.68;;;;;;;-2.17;78.10;100838.14;1792602;78;20993;-70
2020/12/28 07:23:34;;;;;;;72.00;35.23;;;;;;;-2.14;78.15;100840.72;1800836;78;21574;-73
2020/12/28 07:26:08;;;;;;;45.75;26.45;;;;;;;-2.11;78.38;100843.30;1812885;78;22608;-68
2020/12/28 07:28:40;;;;;;;71.25;39.85;;;;;;;-2.07;78.13;100842.48;1819861;78;21080;-67
2020/12/28 07:31:09;;;;;;;49.15;27.17;;;;;;;-2.04;78.09;100847.20;1804805;78;21044;-69
2020/12/28 07:33:48;;;;;;;26.77;16.20;;;;;;;-2.01;78.01;100860.41;1794319;78;21056;-67
2020/12/28 07:36:20;;;;;;;18.92;12.23;;;;;;;-1.98;77.87;100856.99;1809737;78;21016;-70
2020/12/28 07:38:49;;;;;;;28.52;16.25;;;;;;;-1.95;77.10;100846.81;1760472;80;21353;-68
2020/12/28 07:41:23;;;;;;;39.65;21.95;;;;;;;-1.93;77.32;100854.05;1748900;80;21119;-68
2020/12/28 07:43:57;;;;;;;38.38;21.48;;;;;;;-1.89;77.10;100857.06;1751689;81;21049;-67
2020/12/28 07:46:39;;;;;;;39.83;21.27;;;;;;;-1.88;76.93;100863.46;1748483;81;21660;-67
2020/12/28 07:49:29;;;;;;;34.63;19.80;;;;;;;-1.88;76.86;100851.98;1801333;78;21629;-71
2020/12/28 07:52:14;;;;;;;29.10;17.25;;;;;;;-1.87;76.99;100847.30;1810579;78;21234;-70
2020/12/28 07:54:53;;;;;;;26.12;16.37;;;;;;;-1.89;77.12;100842.61;1779987;78;21689;-76
2020/12/28 07:57:29;;;;;;;28.83;17.57;;;;;;;-1.87;77.04;100844.75;1806318;78;22218;-72
2020/12/28 08:00:07;;;;;;;35.45;18.98;;;;;;;-1.86;77.05;100857.09;1750952;78;21100;-73
2020/12/28 08:03:02;;;;;;;29.95;17.23;;;;;;;-1.84;77.20;100840.95;1806615;78;20942;-66
2020/12/28 08:05:32;;;;;;;28.12;16.48;;;;;;;-1.80;77.40;100846.93;1827298;77;21889;-68
2020/12/28 08:08:01;;;;;;;31.17;16.37;;;;;;;-1.76;77.15;100843.14;1817296;78;21099;-68
2020/12/28 08:10:29;;;;;;;29.77;17.45;;;;;;;-1.72;76.93;100841.46;1823582;77;21649;-68
2020/12/28 08:13:01;;;;;;;25.65;15.05;;;;;;;-1.69;76.76;100832.12;1787723;79;21009;-67
2020/12/28 08:15:31;;;;;;;31.07;16.10;;;;;;;-1.64;76.60;100829.60;1738726;81;21560;-67
2020/12/28 08:18:14;;;;;;;28.65;17.57;;;;;;;-1.59;76.07;100826.63;1743956;81;22462;-71
2020/12/28 08:20:45;;;;;;;28.12;19.35;;;;;;;-1.55;76.03;100828.77;1731915;81;21677;-73
2020/12/28 08:23:14;;;;;;;24.85;16.82;;;;;;;-1.52;75.70;100813.47;1744718;81;21777;-70
2020/12/28 08:25:45;;;;;;;20.90;13.90;;;;;;;-1.48;75.64;100818.61;1750521;80;21111;-70
2020/12/28 08:28:13;;;;;;;20.27;13.38;;;;;;;-1.43;75.47;100798.20;1744017;81;20933;-73
2020/12/28 08:30:44;;;;;;;21.87;14.15;;;;;;;-1.40;75.37;100801.62;1743052;81;21216;-73
2020/12/28 08:33:17;;;;;;;25.32;15.20;;;;;;;-1.36;75.40;100808.46;1744999;81;21026;-73
2020/12/28 08:35:51;;;;;;;20.45;12.23;;;;;;;-1.33;75.24;100792.72;1773790;80;21037;-71
2020/12/28 08:38:29;;;;;;;16.57;11.50;;;;;;;-1.31;75.04;100794.86;1754123;80;21041;-70
2020/12/28 08:40:59;;;;;;;22.40;14.10;;;;;;;-1.30;74.64;100779.53;1774733;79;21062;-69
2020/12/28 08:43:28;;;;;;;25.85;15.13;;;;;;;-1.28;74.18;100775.28;1743976;79;21189;-69
2020/12/28 08:46:05;;;;;;;30.57;17.25;;;;;;;-1.25;74.07;100770.19;1774610;79;21073;-69
2020/12/28 08:48:34;;;;;;;21.95;13.55;;;;;;;-1.20;74.00;100765.92;1748341;81;21056;-69
2020/12/28 08:51:15;;;;;;;21.42;14.38;;;;;;;-1.14;74.04;100765.95;1766024;79;21014;-69
2020/12/28 08:53:48;;;;;;;32.55;18.90;;;;;;;-1.06;73.61;100765.55;1772563;79;21055;-69
2020/12/28 08:56:17;;;;;;;20.32;13.70;;;;;;;-1.00;73.39;100768.55;1788626;79;21226;-73
2020/12/28 08:58:48;;;;;;;21.20;12.68;;;;;;;-0.98;72.74;100764.30;1787459;79;21053;-72
2020/12/28 09:01:19;;;;;;;24.55;14.30;;;;;;;-0.95;71.96;100757.06;1768522;79;22289;-73
2020/12/28 09:03:49;;;;;;;23.18;13.00;;;;;;;-0.97;71.21;100745.55;1782934;79;21701;-71
2020/12/28 09:06:18;;;;;;;17.23;10.93;;;;;;;-0.98;71.56;100735.33;1788767;78;21067;-73
2020/12/28 09:08:46;;;;;;;15.93;11.40;;;;;;;-0.98;71.04;100731.06;1763254;80;21277;-70
2020/12/28 09:11:14;;;;;;;20.25;12.55;;;;;;;-0.98;70.71;100718.28;1774970;80;21028;-71
2020/12/28 09:13:47;;;;;;;20.20;12.28;;;;;;;-0.97;70.97;100717.44;1759993;80;21084;-73
2020/12/28 09:16:15;;;;;;;15.93;11.03;;;;;;;-0.97;71.05;100717.44;1768598;80;21037;-71
2020/12/28 09:18:43;;;;;;;19.32;12.05;;;;;;;-0.97;70.99;100707.64;1757016;80;21639;-67
2020/12/28 09:21:12;;;;;;;17.67;11.53;;;;;;;-0.98;71.12;100701.67;1758635;79;21324;-71
2020/12/28 09:23:40;;;;;;;20.57;12.05;;;;;;;-0.96;71.03;100697.84;1767963;80;21030;-72
2020/12/28 09:26:09;;;;;;;18.82;12.80;;;;;;;-0.96;70.85;100696.56;1771073;80;21046;-70
2020/12/28 09:28:39;;;;;;;16.42;11.88;;;;;;;-0.97;71.19;100697.41;1761950;80;21097;-70
2020/12/28 09:31:07;;;;;;;22.77;14.55;;;;;;;-1.01;72.81;100697.83;1769490;80;21007;-73
2020/12/28 09:33:36;;;;;;;18.80;14.07;;;;;;;-1.04;74.22;100691.44;1767578;80;21349;-74
2020/12/28 09:36:05;;;;;;;16.30;11.60;;;;;;;-1.07;74.72;100691.42;1766189;80;21500;-70
2020/12/28 09:38:34;;;;;;;15.95;11.25;;;;;;;-1.13;74.19;100679.91;1782470;79;21026;-68
2020/12/28 09:41:02;;;;;;;12.98;10.18;;;;;;;-1.17;74.02;100658.61;1781306;79;21630;-71
2020/12/28 09:43:31;;;;;;;14.65;10.53;;;;;;;-1.20;73.98;100666.72;1750901;80;20997;-72
2020/12/28 09:46:00;;;;;;;18.67;12.33;;;;;;;-1.24;74.12;100673.95;1795692;79;21402;-70
2020/12/28 09:48:28;;;;;;;17.10;13.13;;;;;;;-1.25;74.42;100663.30;1768456;80;21092;-71
2020/12/28 09:50:56;;;;;;;18.45;12.07;;;;;;;-1.24;74.63;100691.84;1761632;80;21017;-70
2020/12/28 09:53:25;;;;;;;26.75;16.07;;;;;;;-1.23;74.43;100675.66;1779829;78;20993;-70
2020/12/28 09:55:54;;;;;;;24.15;15.85;;;;;;;-1.22;74.47;100669.70;1761564;80;21721;-69
2020/12/28 09:58:22;;;;;;;17.62;12.98;;;;;;;-1.21;74.51;100678.65;1773496;79;21205;-69
2020/12/28 10:00:52;;;;;;;22.15;14.07;;;;;;;-1.18;74.43;100684.16;1812502;78;21115;-71
2020/12/28 10:03:21;;;;;;;25.88;17.30;;;;;;;-1.18;74.12;100668.83;1778462;79;21049;-70
2020/12/28 10:05:50;;;;;;;26.23;13.90;;;;;;;-1.20;74.06;100681.59;1759819;80;21567;-70
2020/12/28 10:08:19;;;;;;;23.05;13.65;;;;;;;-1.20;73.78;100675.67;1793759;79;21217;-78
2020/12/28 10:10:47;;;;;;;20.70;14.47;;;;;;;-1.20;73.66;100664.98;1751665;80;22164;-69
2020/12/28 10:13:15;;;;;;;16.20;10.80;;;;;;;-1.17;73.50;100671.38;1738115;81;21073;-70
2020/12/28 10:15:44;;;;;;;19.90;13.55;;;;;;;-1.13;73.75;100660.75;1782811;79;21465;-68
2020/12/28 10:18:25;;;;;;;25.57;15.13;;;;;;;-1.09;73.13;100672.68;1749169;79;21070;-69
2020/12/28 10:20:54;;;;;;;19.05;13.35;;;;;;;-1.05;73.28;100659.91;1767070;79;21018;-69
2020/12/28 10:23:24;;;;;;;16.67;11.80;;;;;;;-1.02;73.96;100653.52;1770905;79;21334;-69
2020/12/28 10:25:52;;;;;;;17.87;12.03;;;;;;;-0.95;73.94;100658.22;1756630;81;21095;-70
2020/12/28 10:28:23;;;;;;;18.23;12.28;;;;;;;-0.88;73.03;100647.16;1767103;79;21662;-70
2020/12/28 10:30:55;;;;;;;17.62;11.80;;;;;;;-0.81;73.59;100638.63;1750696;81;21653;-72
2020/12/28 10:33:24;;;;;;;21.23;13.83;;;;;;;-0.73;72.74;100647.13;1785222;79;21021;-70
2020/12/28 10:35:52;;;;;;;19.57;13.75;;;;;;;-0.68;72.43;100627.52;1760359;81;22158;-69
2020/12/28 10:38:21;;;;;;;19.07;12.05;;;;;;;-0.61;72.77;100631.36;1754546;79;21018;-70
2020/12/28 10:40:51;;;;;;;14.45;10.35;;;;;;;-0.54;73.06;100626.66;1770782;80;21587;-70
2020/12/28 10:43:19;;;;;;;17.20;10.80;;;;;;;-0.45;72.00;100627.93;1724527;81;21030;-69
2020/12/28 10:45:48;;;;;;;13.88;9.45;;;;;;;-0.41;72.48;100615.56;1772826;79;20958;-68
2020/12/28 10:48:17;;;;;;;17.50;11.38;;;;;;;-0.34;71.90;100623.19;1801050;79;21643;-70
2020/12/28 10:50:46;;;;;;;17.27;12.65;;;;;;;-0.31;70.80;100617.64;1770757;79;21041;-70
2020/12/28 10:53:15;;;;;;;16.05;11.68;;;;;;;-0.31;70.55;100595.47;1738153;81;21074;-69
2020/12/28 10:55:45;;;;;;;16.70;11.75;;;;;;;-0.31;70.79;100598.02;1775431;79;21091;-70
2020/12/28 10:58:14;;;;;;;17.98;12.85;;;;;;;-0.32;69.95;100596.75;1787927;79;22121;-69
2020/12/28 11:00:43;;;;;;;14.75;11.12;;;;;;;-0.34;71.03;100590.36;1771619;79;21210;-71
2020/12/28 11:03:13;;;;;;;16.75;12.82;;;;;;;-0.35;70.32;100587.38;1781707;79;21551;-69
2020/12/28 11:05:41;;;;;;;20.30;13.30;;;;;;;-0.35;70.85;100602.72;1750183;81;21643;-68
2020/12/28 11:08:10;;;;;;;17.55;12.40;;;;;;;-0.36;70.95;100589.50;1765910;80;20978;-68
2020/12/28 11:10:41;;;;;;;18.65;12.45;;;;;;;-0.37;71.48;100591.64;1782215;80;20989;-68
2020/12/28 11:13:10;;;;;;;18.05;12.25;;;;;;;-0.36;71.08;100585.23;1782866;80;22224;-69
2020/12/28 11:15:38;;;;;;;17.02;12.10;;;;;;;-0.35;71.03;100595.90;1755976;80;21006;-68
2020/12/28 11:18:08;;;;;;;15.80;11.35;;;;;;;-0.36;70.85;100592.06;1752026;82;21513;-68
2020/12/28 11:20:37;;;;;;;15.68;11.63;;;;;;;-0.38;70.88;100594.62;1755885;81;21380;-68
2020/12/28 11:23:05;;;;;;;16.20;11.68;;;;;;;-0.39;70.84;100586.95;1762696;80;21551;-69
2020/12/28 11:25:34;;;;;;;21.05;13.68;;;;;;;-0.42;70.84;100589.13;1778167;80;21210;-66
2020/12/28 11:28:03;;;;;;;21.82;14.03;;;;;;;-0.44;70.99;100589.55;1774689;80;21578;-69
2020/12/28 11:30:31;;;;;;;20.10;13.75;;;;;;;-0.46;71.38;100559.72;1753842;80;21014;-69
2020/12/28 11:32:59;;;;;;;20.15;12.65;;;;;;;-0.47;71.32;100557.58;1761111;80;21057;-69
2020/12/28 11:35:29;;;;;;;19.95;12.65;;;;;;;-0.50;71.19;100553.75;1752876;80;20934;-67